Terminal Aerodrome Forecast
Issued by NWS

Home | Current Version | Previous Version | Text Only | Print | Product List | Glossary On
Versions: 1 2 3 4 5 6 7 8 9 10 11 12 13
000
FTUS44 KEPZ 251100
TAFLRU
TAF
KLRU 251126Z 2512/2612 28010KT P6SM SKC
     FM251600 25021G29KT P6SM SCT250
     FM260300 25013G23KT P6SM SCT250=

USA.gov is the U.S. government's official web portal to all federal, state and local government web resources and services.